Aviation Digital Data Service (ADDS)

Output produced by METARs form (0840 UTC 28 March 2020)
found at http://aviationweather.gov/metar/data/
 
METAR text: EYKA 280820Z VRB01KT CAVOK 12/M04 Q1021 R08/090095
Conditions at: EYKA (KAUNAS , LT) observed 0820 UTC 28 March 2020
Temperature: 12.0°C (54°F)
Dewpoint: -4.0°C (25°F) [RH = 32%]
Pressure (altimeter): 30.15 inches Hg (1021.0 mb)
Winds: variable direction winds at 1 MPH (1 knots; 0.5 m/s)
Visibility: 6 or more miles (10+ km)
Ceiling: ceiling and visibility are OK
Clouds: unknown
Weather: no significant weather observed at this time

METAR text: EYKA 280750Z 00000KT CAVOK 10/M03 Q1021 R08/090095
Conditions at: EYKA (KAUNAS , LT) observed 0750 UTC 28 March 2020
Temperature: 10.0°C (50°F)
Dewpoint: -3.0°C (27°F) [RH = 40%]
Pressure (altimeter): 30.15 inches Hg (1021.0 mb)
Winds: calm
Visibility: 6 or more miles (10+ km)
Ceiling: ceiling and visibility are OK
Clouds: unknown
Weather: no significant weather observed at this time

METAR text: EYKA 280720Z VRB01KT 9999 FEW002 09/M04 Q1021 R08/090095
Conditions at: EYKA (KAUNAS , LT) observed 0720 UTC 28 March 2020
Temperature: 9.0°C (48°F)
Dewpoint: -4.0°C (25°F) [RH = 40%]
Pressure (altimeter): 30.15 inches Hg (1021.0 mb)
Winds: variable direction winds at 1 MPH (1 knots; 0.5 m/s)
Visibility: 6 or more miles (10+ km)
Ceiling: at least 12,000 feet AGL
Clouds: few clouds at 200 feet AGL
Weather: no significant weather observed at this time

METAR text: EYKA 280650Z 14002KT CAVOK 07/M04 Q1021 R08/090095
Conditions at: EYKA (KAUNAS , LT) observed 0650 UTC 28 March 2020
Temperature: 7.0°C (45°F)
Dewpoint: -4.0°C (25°F) [RH = 45%]
Pressure (altimeter): 30.15 inches Hg (1021.0 mb)
Winds: from the SE (140 degrees) at 2 MPH (2 knots; 1.0 m/s)
Visibility: 6 or more miles (10+ km)
Ceiling: ceiling and visibility are OK
Clouds: unknown
Weather: no significant weather observed at this time

Forecast for: COR
Text: TAF COR EYKA 280506Z 2806/2906 VRB04KT CAVOK
Forecast period: 0600 UTC 28 March 2020 to 0300 UTC 29 March 2020
Forecast type: FROM: standard forecast or significant change
Winds: variable direction winds at 5 MPH (4 knots; 2.1 m/s)
Visibility: 6 or more miles 10+ km)
Ceiling: unknown
Clouds: missing
Weather: NSW  (no significant weather)
Text: BECMG 2903/2905 36014KT 9000 BKN030
Forecast period: 0300 to 0600 UTC 29 March 2020
Forecast type: BECOMING: Conditions expected to become as follows by 0500 UTC 29 March 2020
Winds: from the N (360 degrees) at 16 MPH (14 knots; 7.2 m/s)
Visibility: 6 miles (9 km)
Ceiling: 3000 feet AGL
Clouds: broken clouds at 3000 feet AGL
Weather: NSW  (no significant weather)